createdAt,value
2023-07-26T00:00:50.058Z,70.15
2023-07-26T00:01:50.036Z,70.56
2023-07-26T00:02:50.128Z,70.25
2023-07-26T00:03:50.065Z,70.96
2023-07-26T00:04:50.034Z,70.96
2023-07-26T00:05:50.041Z,71.47
2023-07-26T00:06:50.013Z,71.30
2023-07-26T00:07:50.063Z,71.09
2023-07-26T00:08:50.002Z,71.20
2023-07-26T00:09:49.997Z,71.91
2023-07-26T00:10:49.995Z,72.21
2023-07-26T00:11:49.990Z,72.72
2023-07-26T00:12:49.999Z,73.12
2023-07-26T00:13:50.015Z,73.02
2023-07-26T00:14:49.971Z,73.16
2023-07-26T00:15:49.981Z,73.76
2023-07-26T00:16:49.960Z,74.27
2023-07-26T00:17:49.996Z,74.27
2023-07-26T00:18:49.950Z,74.27
2023-07-26T00:19:49.948Z,73.97
2023-07-26T00:20:49.945Z,74.17
2023-07-26T00:21:49.938Z,74.17
2023-07-26T00:22:50.006Z,74.71
2023-07-26T00:23:49.925Z,74.41
2023-07-26T00:24:49.994Z,74.61
2023-07-26T00:25:49.916Z,74.81
2023-07-26T00:26:49.909Z,74.71
2023-07-26T00:27:49.945Z,74.51
2023-07-26T00:28:49.924Z,74.41
2023-07-26T00:29:49.902Z,74.54
2023-07-26T00:30:49.900Z,74.65
2023-07-26T00:31:49.882Z,74.95
2023-07-26T00:32:49.941Z,74.74
2023-07-26T00:33:49.881Z,74.74
2023-07-26T00:34:49.869Z,74.65
2023-07-26T00:35:49.864Z,74.74
2023-07-26T00:36:49.858Z,75.05
2023-07-26T00:37:49.857Z,75.76
2023-07-26T00:38:49.927Z,75.09
2023-07-26T00:39:49.851Z,75.09
2023-07-26T00:40:49.843Z,75.19
2023-07-26T00:41:49.831Z,74.98
2023-07-26T00:42:49.823Z,75.70
2023-07-26T00:43:49.862Z,75.49
2023-07-26T00:44:49.830Z,74.88
2023-07-26T00:45:49.814Z,75.29
2023-07-26T00:46:49.858Z,75.70
2023-07-26T00:47:49.826Z,75.83
2023-07-26T00:48:49.803Z,76.44
2023-07-26T00:49:49.789Z,76.44
2023-07-26T00:50:49.775Z,76.44
2023-07-26T00:51:49.775Z,76.44
2023-07-26T00:52:49.769Z,76.24
2023-07-26T00:53:49.769Z,76.64
2023-07-26T00:54:49.761Z,76.85
2023-07-26T00:55:49.765Z,76.64
2023-07-26T00:56:49.751Z,76.78
2023-07-26T00:57:49.740Z,76.64
2023-07-26T00:58:49.735Z,76.88
2023-07-26T00:59:49.765Z,77.49
2023-07-26T01:00:49.821Z,77.90
2023-07-26T01:01:49.734Z,77.70
2023-07-26T01:02:49.785Z,77.90
2023-07-26T01:03:49.731Z,78.71
2023-07-26T01:04:49.701Z,78.34
2023-07-26T01:05:49.757Z,78.14
2023-07-26T01:06:49.689Z,78.14
2023-07-26T01:07:49.722Z,79.05
2023-07-26T01:08:49.744Z,79.16
2023-07-26T01:09:49.748Z,78.64
2023-07-26T01:10:49.686Z,79.56
2023-07-26T01:11:49.688Z,79.46
2023-07-26T01:12:49.701Z,79.19
2023-07-26T01:13:49.748Z,79.60
2023-07-26T01:14:49.760Z,79.09
2023-07-26T01:15:49.747Z,79.50
2023-07-26T01:16:49.685Z,79.50
2023-07-26T01:17:49.739Z,79.39
2023-07-26T01:18:49.681Z,78.99
2023-07-26T01:19:49.714Z,79.90
2023-07-26T01:20:49.737Z,79.80
2023-07-26T01:21:49.724Z,80.51
2023-07-26T01:22:49.678Z,80.65
2023-07-26T01:23:49.657Z,80.55
2023-07-26T01:24:49.622Z,80.76
2023-07-26T01:25:49.723Z,80.55
2023-07-26T01:26:49.588Z,80.72
2023-07-26T01:27:49.572Z,80.85
2023-07-26T01:28:49.567Z,80.96
2023-07-26T01:29:49.558Z,80.76
2023-07-26T01:30:49.572Z,80.96
2023-07-26T01:31:49.566Z,80.90
2023-07-26T01:32:49.564Z,80.96
2023-07-26T01:33:49.533Z,80.96
2023-07-26T01:34:49.533Z,81.26
2023-07-26T01:35:49.542Z,81.60
2023-07-26T01:36:49.702Z,81.51
2023-07-26T01:37:49.510Z,81.60
2023-07-26T01:38:49.520Z,82.42
2023-07-26T01:39:49.504Z,81.60
2023-07-26T01:40:49.491Z,82.32
2023-07-26T01:41:49.490Z,82.01
2023-07-26T01:42:49.479Z,82.21
2023-07-26T01:43:49.477Z,82.21
2023-07-26T01:44:49.472Z,82.01
2023-07-26T01:45:49.483Z,82.52
2023-07-26T01:46:49.493Z,82.35
2023-07-26T01:47:49.457Z,82.26
2023-07-26T01:48:49.445Z,82.87
2023-07-26T01:49:49.439Z,82.56
2023-07-26T01:50:49.436Z,82.05
2023-07-26T01:51:49.459Z,82.26
2023-07-26T01:52:49.419Z,82.66
2023-07-26T01:53:49.466Z,82.26
2023-07-26T01:54:49.405Z,82.35
2023-07-26T01:55:49.395Z,82.56
2023-07-26T01:56:49.392Z,82.26
2023-07-26T01:57:49.383Z,82.76
2023-07-26T01:58:49.382Z,83.07
2023-07-26T01:59:49.381Z,82.76
2023-07-26T02:00:49.365Z,82.46
2023-07-26T02:01:49.376Z,82.46
2023-07-26T02:02:49.396Z,82.80
2023-07-26T02:03:49.377Z,82.97
2023-07-26T02:04:49.344Z,82.76
2023-07-26T02:05:49.337Z,82.76
2023-07-26T02:06:49.330Z,83.07
2023-07-26T02:07:49.362Z,83.37
2023-07-26T02:08:49.318Z,83.17
2023-07-26T02:09:49.315Z,83.21
2023-07-26T02:10:49.303Z,83.11
2023-07-26T02:11:49.301Z,83.17
2023-07-26T02:12:49.293Z,82.87
2023-07-26T02:13:49.285Z,83.42
2023-07-26T02:14:49.279Z,83.07
2023-07-26T02:15:49.281Z,83.42
2023-07-26T02:16:49.267Z,83.11
2023-07-26T02:17:49.291Z,83.42
2023-07-26T02:18:49.256Z,83.01
2023-07-26T02:19:49.265Z,83.42
2023-07-26T02:20:49.243Z,83.11
2023-07-26T02:21:49.234Z,82.90
2023-07-26T02:22:49.228Z,82.90
2023-07-26T02:23:49.348Z,83.31
2023-07-26T02:24:49.257Z,83.42
2023-07-26T02:25:49.212Z,83.62
2023-07-26T02:26:49.218Z,83.42
2023-07-26T02:27:49.196Z,83.21
2023-07-26T02:28:49.295Z,83.62
2023-07-26T02:29:49.188Z,83.62
2023-07-26T02:30:49.191Z,83.92
2023-07-26T02:31:49.246Z,83.31
2023-07-26T02:32:49.183Z,83.72
2023-07-26T02:33:49.156Z,83.62
2023-07-26T02:34:49.152Z,83.92
2023-07-26T02:35:49.146Z,83.72
2023-07-26T02:36:49.135Z,84.23
2023-07-26T02:37:49.132Z,83.92
2023-07-26T02:38:49.186Z,84.47
2023-07-26T02:39:49.117Z,84.06
2023-07-26T02:40:49.115Z,84.03
2023-07-26T02:41:49.105Z,84.37
2023-07-26T02:42:49.123Z,84.67
2023-07-26T02:43:49.090Z,84.58
2023-07-26T02:44:49.087Z,84.17
2023-07-26T02:45:49.107Z,84.37
2023-07-26T02:46:49.068Z,84.37
2023-07-26T02:47:49.101Z,84.37
2023-07-26T02:48:49.055Z,84.47
2023-07-26T02:49:49.139Z,84.27
2023-07-26T02:50:49.046Z,84.67
2023-07-26T02:51:49.038Z,84.88
2023-07-26T02:52:49.032Z,85.43
2023-07-26T02:53:49.042Z,85.08
2023-07-26T02:54:49.108Z,85.94
2023-07-26T02:55:49.008Z,86.35
2023-07-26T02:56:49.011Z,86.76
2023-07-26T02:57:48.999Z,86.04
2023-07-26T02:58:48.991Z,86.35
2023-07-26T02:59:49.012Z,86.04
2023-07-26T03:00:49.001Z,86.80
2023-07-26T03:01:48.996Z,86.49
2023-07-26T03:02:49.051Z,86.69
2023-07-26T03:03:48.971Z,87.10
2023-07-26T03:04:48.951Z,86.90
2023-07-26T03:05:48.956Z,87.71
2023-07-26T03:06:48.945Z,87.41
2023-07-26T03:07:48.933Z,87.61
2023-07-26T03:08:48.938Z,87.71
2023-07-26T03:09:48.925Z,87.92
2023-07-26T03:10:48.912Z,88.22
2023-07-26T03:11:48.906Z,88.53
2023-07-26T03:12:48.901Z,88.32
2023-07-26T03:13:48.902Z,88.47
2023-07-26T03:14:48.888Z,88.12
2023-07-26T03:15:48.897Z,88.26
2023-07-26T03:16:48.873Z,88.47
2023-07-26T03:17:48.927Z,88.47
2023-07-26T03:18:48.869Z,88.37
2023-07-26T03:19:48.858Z,88.47
2023-07-26T03:20:48.848Z,88.67
2023-07-26T03:21:48.847Z,88.47
2023-07-26T03:22:48.837Z,88.78
2023-07-26T03:23:48.839Z,88.67
2023-07-26T03:24:48.919Z,88.53
2023-07-26T03:25:48.857Z,88.57
2023-07-26T03:26:48.809Z,88.57
2023-07-26T03:27:48.802Z,88.47
2023-07-26T03:28:48.807Z,88.88
2023-07-26T03:29:48.797Z,88.78
2023-07-26T03:30:48.796Z,89.08
2023-07-26T03:31:48.782Z,89.39
2023-07-26T03:32:48.864Z,88.88
2023-07-26T03:33:48.761Z,89.08
2023-07-26T03:34:48.757Z,88.78
2023-07-26T03:35:48.747Z,88.93
2023-07-26T03:36:48.739Z,88.88
2023-07-26T03:37:48.734Z,88.93
2023-07-26T03:38:48.733Z,89.14
2023-07-26T03:39:48.722Z,88.93
2023-07-26T03:40:48.716Z,88.53
2023-07-26T03:41:48.717Z,89.04
2023-07-26T03:42:48.700Z,88.73
2023-07-26T03:43:48.691Z,88.84
2023-07-26T03:44:48.690Z,88.84
2023-07-26T03:45:48.738Z,88.43
2023-07-26T03:46:48.672Z,88.63
2023-07-26T03:47:48.745Z,88.53
2023-07-26T03:48:48.660Z,88.43
2023-07-26T03:49:48.656Z,88.22
2023-07-26T03:50:48.652Z,87.82
2023-07-26T03:51:48.639Z,88.63
2023-07-26T03:52:48.648Z,88.18
2023-07-26T03:53:48.632Z,87.98
2023-07-26T03:54:48.623Z,88.18
2023-07-26T03:55:48.616Z,87.77
2023-07-26T03:56:48.609Z,88.18
2023-07-26T03:57:48.608Z,87.77
2023-07-26T03:58:48.598Z,87.43
2023-07-26T03:59:48.595Z,87.77
2023-07-26T04:00:48.642Z,87.47
2023-07-26T04:01:48.583Z,87.73
2023-07-26T04:02:48.625Z,87.12
2023-07-26T04:03:48.697Z,87.73
2023-07-26T04:04:48.561Z,87.84
2023-07-26T04:05:48.551Z,87.84
2023-07-26T04:06:48.544Z,87.23
2023-07-26T04:07:48.540Z,87.53
2023-07-26T04:08:48.559Z,87.73
2023-07-26T04:09:48.527Z,87.53
2023-07-26T04:10:48.522Z,86.82
2023-07-26T04:11:48.520Z,86.68
2023-07-26T04:12:48.509Z,87.18
2023-07-26T04:13:48.509Z,86.68
2023-07-26T04:14:48.513Z,86.16
2023-07-26T04:15:48.495Z,87.08
2023-07-26T04:16:48.483Z,87.18
2023-07-26T04:17:48.536Z,86.27
2023-07-26T04:18:48.488Z,85.92
2023-07-26T04:19:48.464Z,87.24
2023-07-26T04:20:48.459Z,85.92
2023-07-26T04:21:48.454Z,86.63
2023-07-26T04:22:48.447Z,85.41
2023-07-26T04:23:48.440Z,86.02
2023-07-26T04:24:48.468Z,86.13
2023-07-26T04:25:48.427Z,85.82
2023-07-26T04:26:48.422Z,85.88
2023-07-26T04:27:48.435Z,85.68
2023-07-26T04:28:48.413Z,85.31
2023-07-26T04:29:48.405Z,85.68
2023-07-26T04:30:48.414Z,84.66
2023-07-26T04:31:48.457Z,84.76
2023-07-26T04:32:48.412Z,85.27
2023-07-26T04:33:48.417Z,85.27
2023-07-26T04:34:48.372Z,85.68
2023-07-26T04:35:48.363Z,85.33
2023-07-26T04:36:48.373Z,84.82
2023-07-26T04:37:48.354Z,84.72
2023-07-26T04:38:48.347Z,84.72
2023-07-26T04:39:48.341Z,84.21
2023-07-26T04:40:48.332Z,84.28
2023-07-26T04:41:48.335Z,84.28
2023-07-26T04:42:48.322Z,83.67
2023-07-26T04:43:48.317Z,82.92
2023-07-26T04:44:48.310Z,82.81
2023-07-26T04:45:48.304Z,82.78
2023-07-26T04:46:48.320Z,81.82
2023-07-26T04:47:48.327Z,81.41
2023-07-26T04:48:48.286Z,81.52
2023-07-26T04:49:48.280Z,80.87
2023-07-26T04:50:48.280Z,80.46
2023-07-26T04:51:48.269Z,79.14
2023-07-26T04:52:48.266Z,79.21
2023-07-26T04:53:48.259Z,79.00
2023-07-26T04:54:48.252Z,79.51
2023-07-26T04:55:48.245Z,79.31
2023-07-26T04:56:48.242Z,79.27
2023-07-26T04:57:48.238Z,78.46
2023-07-26T04:58:48.238Z,78.97
2023-07-26T04:59:48.234Z,77.61
2023-07-26T05:00:48.285Z,76.09
2023-07-26T05:01:48.214Z,77.51
2023-07-26T05:02:48.228Z,77.48
2023-07-26T05:03:48.235Z,77.34
2023-07-26T05:04:48.200Z,75.75
2023-07-26T05:05:48.193Z,74.37
2023-07-26T05:06:48.195Z,71.37
2023-07-26T05:07:48.192Z,69.82
2023-07-26T05:08:48.177Z,69.92
2023-07-26T05:09:48.187Z,69.28
2023-07-26T05:10:48.169Z,69.28
2023-07-26T05:11:48.187Z,69.52
2023-07-26T05:12:48.156Z,69.62
2023-07-26T05:13:48.150Z,69.65
2023-07-26T05:14:48.146Z,70.19
2023-07-26T05:15:48.156Z,70.79
2023-07-26T05:16:48.168Z,71.23
2023-07-26T05:17:48.145Z,72.99
2023-07-26T05:18:48.125Z,73.22
2023-07-26T05:19:48.119Z,73.46
2023-07-26T05:20:48.124Z,73.96
2023-07-26T05:21:48.114Z,74.00
2023-07-26T05:22:48.126Z,75.01
2023-07-26T05:23:48.100Z,74.91
2023-07-26T05:24:48.145Z,74.91
2023-07-26T05:25:48.090Z,75.28
2023-07-26T05:26:48.096Z,74.57
2023-07-26T05:27:48.092Z,74.07
2023-07-26T05:28:48.075Z,74.47
2023-07-26T05:29:48.076Z,74.47
2023-07-26T05:30:48.094Z,75.18
2023-07-26T05:31:48.061Z,75.85
2023-07-26T05:32:48.070Z,74.33
2023-07-26T05:33:48.054Z,73.99
2023-07-26T05:34:48.056Z,73.25
2023-07-26T05:35:48.040Z,72.75
2023-07-26T05:36:48.037Z,71.37
2023-07-26T05:37:48.032Z,69.75
2023-07-26T05:38:48.040Z,68.18
2023-07-26T05:39:48.026Z,66.50
2023-07-26T05:40:48.022Z,65.39
2023-07-26T05:41:48.012Z,65.39
2023-07-26T05:42:48.012Z,64.96
2023-07-26T05:43:48.012Z,63.73
2023-07-26T05:44:48.007Z,64.03
2023-07-26T05:45:47.999Z,65.20
2023-07-26T05:46:48.022Z,63.67
2023-07-26T05:47:48.049Z,62.56
2023-07-26T05:48:47.989Z,61.96
2023-07-26T05:49:47.984Z,63.26
2023-07-26T05:50:47.974Z,61.66
2023-07-26T05:51:47.969Z,61.02
2023-07-26T05:52:47.965Z,62.20
2023-07-26T05:53:47.963Z,59.66
2023-07-26T05:54:47.956Z,60.06
2023-07-26T05:55:48.040Z,59.41
2023-07-26T05:56:47.948Z,59.20
2023-07-26T05:57:47.952Z,58.40
2023-07-26T05:58:49.503Z,58.94
2023-07-26T05:59:47.942Z,58.66
2023-07-26T06:00:47.933Z,59.26
2023-07-26T06:01:47.934Z,59.69
2023-07-26T06:02:47.998Z,61.50
2023-07-26T06:03:47.929Z,61.00
2023-07-26T06:04:47.925Z,60.77
2023-07-26T06:05:47.947Z,60.74
2023-07-26T06:06:47.915Z,59.03
2023-07-26T06:07:47.912Z,59.23
2023-07-26T06:08:47.911Z,59.94
2023-07-26T06:09:47.917Z,59.70
2023-07-26T06:10:47.903Z,58.98
2023-07-26T06:11:56.759Z,58.98
2023-07-26T06:12:47.897Z,58.55
2023-07-26T06:13:47.915Z,57.42
2023-07-26T06:14:47.899Z,58.09
2023-07-26T06:15:47.893Z,56.79
2023-07-26T06:16:47.968Z,56.07
2023-07-26T06:17:47.919Z,56.34
2023-07-26T06:18:47.884Z,55.51
2023-07-26T06:19:47.892Z,54.29
2023-07-26T06:20:47.879Z,52.99
2023-07-26T06:21:47.884Z,54.49
2023-07-26T06:22:47.886Z,53.89
2023-07-26T06:23:47.876Z,54.61
2023-07-26T06:24:47.916Z,54.66
2023-07-26T06:25:47.872Z,52.84
2023-07-26T06:26:47.865Z,52.89
2023-07-26T06:27:47.863Z,54.67
2023-07-26T06:28:47.874Z,55.59
2023-07-26T06:29:47.862Z,56.39
2023-07-26T06:30:47.908Z,56.64
2023-07-26T06:31:47.864Z,55.81
2023-07-26T06:32:47.907Z,53.89
2023-07-26T06:33:47.857Z,52.82
2023-07-26T06:34:47.921Z,54.34
2023-07-26T06:35:47.853Z,55.22
2023-07-26T06:36:47.855Z,57.37
2023-07-26T06:37:47.852Z,57.90
2023-07-26T06:38:47.860Z,59.20
2023-07-26T06:39:47.851Z,58.61
2023-07-26T06:40:47.846Z,59.13
2023-07-26T06:41:47.848Z,59.08
2023-07-26T06:42:47.845Z,57.65
2023-07-26T06:43:47.844Z,57.37
2023-07-26T06:44:47.843Z,57.55
2023-07-26T06:45:47.858Z,57.69
2023-07-26T06:46:47.838Z,56.84
2023-07-26T06:47:47.856Z,55.19
2023-07-26T06:48:47.879Z,53.04
2023-07-26T06:49:47.839Z,52.44
2023-07-26T06:50:47.835Z,53.31
2023-07-26T06:51:47.839Z,51.97
2023-07-26T06:52:47.836Z,52.29
2023-07-26T06:53:47.839Z,52.72
2023-07-26T06:54:47.833Z,53.84
2023-07-26T06:55:47.832Z,53.47
2023-07-26T06:56:47.832Z,54.90
2023-07-26T06:57:47.832Z,56.89
2023-07-26T06:58:47.828Z,55.49
2023-07-26T06:59:47.832Z,55.36
2023-07-26T07:00:47.827Z,55.36
2023-07-26T07:01:47.897Z,54.86
2023-07-26T07:02:47.863Z,56.16
2023-07-26T07:04:47.860Z,54.02
2023-07-26T07:05:47.826Z,53.39
2023-07-26T07:06:47.824Z,53.06
2023-07-26T07:07:47.824Z,52.67
2023-07-26T07:08:47.822Z,54.01
2023-07-26T07:09:47.837Z,52.12
2023-07-26T07:10:47.821Z,52.81
2023-07-26T07:11:47.824Z,53.24
2023-07-26T07:12:47.823Z,53.41
2023-07-26T07:13:47.835Z,53.44
2023-07-26T07:14:47.828Z,52.76
2023-07-26T07:15:47.864Z,53.27
2023-07-26T07:16:47.831Z,54.99
2023-07-26T07:17:51.069Z,54.11
2023-07-26T07:18:47.821Z,55.34
2023-07-26T07:19:47.821Z,56.24
2023-07-26T07:20:47.822Z,56.71
2023-07-26T07:21:47.864Z,56.54
2023-07-26T07:22:47.820Z,56.29
2023-07-26T07:23:47.820Z,54.89
2023-07-26T07:24:47.854Z,55.29
2023-07-26T07:25:47.820Z,55.19
2023-07-26T07:26:47.818Z,55.02
2023-07-26T07:27:47.830Z,55.34
2023-07-26T07:28:47.836Z,56.87
2023-07-26T07:29:47.826Z,56.09
2023-07-26T07:30:47.819Z,57.22
2023-07-26T07:31:47.856Z,58.62
2023-07-26T07:32:47.866Z,58.78
2023-07-26T07:33:47.829Z,59.28
2023-07-26T07:34:47.818Z,60.28
2023-07-26T07:35:47.824Z,58.15
2023-07-26T07:36:47.815Z,58.15
2023-07-26T07:37:47.820Z,58.15
2023-07-26T07:38:47.838Z,58.28
2023-07-26T07:39:47.814Z,58.48
2023-07-26T07:40:47.814Z,58.00
2023-07-26T07:41:47.817Z,59.00
2023-07-26T07:42:47.815Z,59.81
2023-07-26T07:43:47.813Z,59.58
2023-07-26T07:44:47.832Z,58.85
2023-07-26T07:45:47.839Z,58.72
2023-07-26T07:47:00.322Z,55.66
2023-07-26T07:47:47.897Z,54.14
2023-07-26T07:48:47.809Z,54.24
2023-07-26T07:49:47.811Z,53.04
2023-07-26T07:50:47.821Z,54.19
2023-07-26T07:51:47.807Z,53.24
2023-07-26T07:52:47.814Z,54.86
2023-07-26T07:53:47.810Z,54.94
2023-07-26T07:54:47.806Z,56.34
2023-07-26T07:55:47.809Z,54.74
2023-07-26T07:56:47.809Z,55.17
2023-07-26T07:57:47.828Z,54.97
2023-07-26T07:58:47.807Z,55.62
2023-07-26T07:59:47.815Z,54.76
2023-07-26T08:00:47.806Z,53.36
2023-07-26T08:01:47.822Z,52.62
2023-07-26T08:02:47.847Z,52.39
2023-07-26T08:03:47.876Z,53.44
2023-07-26T08:04:47.813Z,52.04
2023-07-26T08:05:47.807Z,51.12
2023-07-26T08:06:47.817Z,50.82
2023-07-26T08:07:47.838Z,50.52
2023-07-26T08:08:47.814Z,50.92
2023-07-26T08:09:47.824Z,50.95
2023-07-26T08:10:47.824Z,50.85
2023-07-26T08:11:47.812Z,52.14
2023-07-26T08:12:47.813Z,51.07
2023-07-26T08:13:47.817Z,51.87
2023-07-26T08:14:47.812Z,51.59
2023-07-26T08:15:47.881Z,52.00
2023-07-26T08:16:47.934Z,51.77
2023-07-26T08:17:47.855Z,52.17
2023-07-26T08:18:47.819Z,52.64
2023-07-26T08:19:47.826Z,52.25
2023-07-26T08:20:47.832Z,50.77
2023-07-26T08:21:47.818Z,50.67
2023-07-26T08:22:47.820Z,50.65
2023-07-26T08:23:47.836Z,51.32
2023-07-26T08:24:47.834Z,50.68
2023-07-26T08:25:47.823Z,47.64
2023-07-26T08:26:47.841Z,48.74
2023-07-26T08:27:47.829Z,49.23
2023-07-26T08:28:47.828Z,48.52
2023-07-26T08:29:47.845Z,48.91
2023-07-26T08:30:47.822Z,47.00
2023-07-26T08:31:47.876Z,49.29
2023-07-26T08:32:47.842Z,48.66
2023-07-26T08:33:47.831Z,47.70
2023-07-26T08:34:47.844Z,49.31
2023-07-26T08:35:47.831Z,49.80
2023-07-26T08:36:47.842Z,48.76
2023-07-26T08:37:47.836Z,48.98
2023-07-26T08:38:47.829Z,49.83
2023-07-26T08:39:47.834Z,49.98
2023-07-26T08:40:47.842Z,51.27
2023-07-26T08:41:47.831Z,51.42
2023-07-26T08:42:47.833Z,52.97
2023-07-26T08:43:47.833Z,54.69
2023-07-26T08:44:47.833Z,55.62
2023-07-26T08:45:47.858Z,55.89
2023-07-26T08:46:47.833Z,54.02
2023-07-26T08:47:47.873Z,55.92
2023-07-26T08:48:47.836Z,55.24
2023-07-26T08:49:47.829Z,54.14
2023-07-26T08:50:47.834Z,55.44
2023-07-26T08:51:47.833Z,55.35
2023-07-26T08:52:47.842Z,56.92
2023-07-26T08:53:47.831Z,56.02
2023-07-26T08:54:47.839Z,55.42
2023-07-26T08:55:47.834Z,53.94
2023-07-26T08:56:47.826Z,54.85
2023-07-26T08:57:47.825Z,55.77
2023-07-26T08:58:47.822Z,56.57
2023-07-26T08:59:47.876Z,56.27
2023-07-26T09:00:47.892Z,57.28
2023-07-26T09:02:02.076Z,54.37
2023-07-26T09:02:47.934Z,55.55
2023-07-26T09:03:47.902Z,54.87
2023-07-26T09:04:47.824Z,54.97
2023-07-26T09:05:47.829Z,56.24
2023-07-26T09:06:47.827Z,55.42
2023-07-26T09:07:47.819Z,53.49
2023-07-26T09:08:47.821Z,54.17
2023-07-26T09:09:47.853Z,52.44
2023-07-26T09:10:47.819Z,52.94
2023-07-26T09:11:47.820Z,54.54
2023-07-26T09:12:47.823Z,53.44
2023-07-26T09:13:47.826Z,54.04
2023-07-26T09:14:47.836Z,53.07
2023-07-26T09:15:47.834Z,52.49
2023-07-26T09:16:47.823Z,53.24
2023-07-26T09:17:47.836Z,53.67
2023-07-26T09:18:47.818Z,53.50
2023-07-26T09:19:47.818Z,55.30
2023-07-26T09:20:47.820Z,54.12
2023-07-26T09:21:47.822Z,55.73
2023-07-26T09:22:47.818Z,55.82
2023-07-26T09:23:50.443Z,55.63
2023-07-26T09:24:47.859Z,58.30
2023-07-26T09:25:47.819Z,55.80
2023-07-26T09:26:47.816Z,56.10
2023-07-26T09:27:47.818Z,55.30
2023-07-26T09:28:47.813Z,55.50
2023-07-26T09:29:47.811Z,55.10
2023-07-26T09:30:47.812Z,56.30
2023-07-26T09:31:47.838Z,55.20
2023-07-26T09:32:47.842Z,56.13
2023-07-26T09:33:47.809Z,57.40
2023-07-26T09:34:47.841Z,56.50
2023-07-26T09:35:47.812Z,55.47
2023-07-26T09:36:47.812Z,54.00
2023-07-26T09:37:47.807Z,54.70
2023-07-26T09:38:47.806Z,55.50
2023-07-26T09:39:47.803Z,54.82
2023-07-26T09:40:47.822Z,54.90
2023-07-26T09:41:47.798Z,56.80
2023-07-26T09:42:49.268Z,58.07
2023-07-26T09:43:47.794Z,56.67
2023-07-26T09:44:47.806Z,55.07
2023-07-26T09:45:47.792Z,55.44
2023-07-26T09:46:47.814Z,53.24
2023-07-26T09:47:48.329Z,54.94
2023-07-26T09:48:53.899Z,54.02
2023-07-26T09:49:47.835Z,55.82
2023-07-26T09:52:47.787Z,51.92
2023-07-26T09:53:47.801Z,52.74
2023-07-26T09:54:47.782Z,53.34
2023-07-26T09:55:59.895Z,53.92
2023-07-26T09:56:47.779Z,54.92
2023-07-26T09:57:47.778Z,53.64
2023-07-26T09:58:48.326Z,54.55
2023-07-26T09:59:48.761Z,56.24
2023-07-26T10:00:47.789Z,55.74
2023-07-26T10:01:47.775Z,58.55
2023-07-26T10:02:47.840Z,55.74
2023-07-26T10:03:47.771Z,55.65
2023-07-26T10:04:47.773Z,55.72
2023-07-26T10:05:47.773Z,54.92
2023-07-26T10:06:47.775Z,54.82
2023-07-26T10:07:47.769Z,53.24
2023-07-26T10:08:47.773Z,52.87
2023-07-26T10:09:47.850Z,55.74
2023-07-26T10:10:47.762Z,54.94
2023-07-26T10:11:47.766Z,54.85
2023-07-26T10:12:47.761Z,53.14
2023-07-26T10:13:47.764Z,52.47
2023-07-26T10:14:47.763Z,52.57
2023-07-26T10:15:47.758Z,55.67
2023-07-26T10:16:47.783Z,54.27
2023-07-26T10:17:47.783Z,53.50
2023-07-26T10:18:47.755Z,53.50
2023-07-26T10:19:47.758Z,55.07
2023-07-26T10:20:47.776Z,55.47
2023-07-26T10:21:47.758Z,53.47
2023-07-26T10:22:47.751Z,53.55
2023-07-26T10:23:47.747Z,53.37
2023-07-26T10:24:47.877Z,53.07
2023-07-26T10:25:47.751Z,53.57
2023-07-26T10:26:47.755Z,54.37
2023-07-26T10:27:47.745Z,52.74
2023-07-26T10:28:47.741Z,51.25
2023-07-26T10:29:47.744Z,51.14
2023-07-26T10:30:47.824Z,50.14
2023-07-26T10:31:47.746Z,50.52
2023-07-26T10:32:47.742Z,50.34
2023-07-26T10:33:47.737Z,50.54
2023-07-26T10:34:47.731Z,52.37
2023-07-26T10:35:47.739Z,52.14
2023-07-26T10:36:47.730Z,53.05
2023-07-26T10:37:47.745Z,53.32
2023-07-26T10:38:47.727Z,50.22
2023-07-26T10:39:47.728Z,51.14
2023-07-26T10:40:47.725Z,52.14
2023-07-26T10:41:47.728Z,53.55
2023-07-26T10:42:47.727Z,53.34
2023-07-26T10:43:47.725Z,50.24
2023-07-26T10:44:47.753Z,50.74
2023-07-26T10:45:47.725Z,51.74
2023-07-26T10:46:47.770Z,52.44
2023-07-26T10:47:47.752Z,51.74
2023-07-26T10:48:47.714Z,52.55
2023-07-26T10:49:47.715Z,53.72
2023-07-26T10:50:47.710Z,55.05
2023-07-26T10:51:47.710Z,58.73
2023-07-26T10:52:47.708Z,61.40
2023-07-26T10:53:47.705Z,63.33
2023-07-26T10:54:47.740Z,64.07
2023-07-26T10:55:47.704Z,63.90
2023-07-26T10:56:47.703Z,65.44
2023-07-26T10:57:47.700Z,65.97
2023-07-26T10:58:47.701Z,64.96
2023-07-26T10:59:47.700Z,64.56
2023-07-26T11:00:47.696Z,62.35
2023-07-26T11:01:47.771Z,64.46
2023-07-26T11:02:47.792Z,61.34
2023-07-26T11:03:47.700Z,62.15
2023-07-26T11:04:47.720Z,61.74
2023-07-26T11:05:47.684Z,61.24
2023-07-26T11:06:47.677Z,61.85
2023-07-26T11:07:47.679Z,60.71
2023-07-26T11:08:47.677Z,59.20
2023-07-26T11:09:47.683Z,57.59
2023-07-26T11:10:47.669Z,57.90
2023-07-26T11:11:47.668Z,58.90
2023-07-26T11:12:47.665Z,57.57
2023-07-26T11:13:47.664Z,55.35
2023-07-26T11:14:54.725Z,57.74
2023-07-26T11:16:14.914Z,56.93
2023-07-26T11:16:47.678Z,56.01
2023-07-26T11:17:47.663Z,56.91
2023-07-26T11:18:47.665Z,56.30
2023-07-26T11:19:47.695Z,55.51
2023-07-26T11:20:47.650Z,56.41
2023-07-26T11:21:47.649Z,56.41
2023-07-26T11:22:47.643Z,56.34
2023-07-26T11:23:47.642Z,58.81
2023-07-26T11:24:47.755Z,57.79
2023-07-26T11:25:47.643Z,57.81
2023-07-26T11:26:47.632Z,57.89
2023-07-26T11:27:47.629Z,57.28
2023-07-26T11:28:47.625Z,56.98
2023-07-26T11:29:47.624Z,57.51
2023-07-26T11:30:47.623Z,58.31
2023-07-26T11:31:47.685Z,58.51
2023-07-26T11:32:47.648Z,58.62
2023-07-26T11:33:47.619Z,60.69
2023-07-26T11:34:47.614Z,58.99
2023-07-26T11:35:47.609Z,59.46
2023-07-26T11:36:47.607Z,59.94
2023-07-26T11:37:47.604Z,60.53
2023-07-26T11:38:47.611Z,58.87
2023-07-26T11:39:47.605Z,56.48
2023-07-26T11:40:47.597Z,56.74
2023-07-26T11:41:47.617Z,54.05
2023-07-26T11:42:47.593Z,54.05
2023-07-26T11:43:47.607Z,52.44
2023-07-26T11:44:47.588Z,52.74
2023-07-26T11:45:47.651Z,51.14
2023-07-26T11:46:47.614Z,52.04
2023-07-26T11:47:47.606Z,51.74
2023-07-26T11:48:47.580Z,51.84
2023-07-26T11:49:47.579Z,51.54
2023-07-26T11:50:47.579Z,52.37
2023-07-26T11:51:47.576Z,52.89
2023-07-26T11:52:47.573Z,54.93
2023-07-26T11:53:50.042Z,55.32
2023-07-26T11:54:47.571Z,55.82
2023-07-26T11:55:47.630Z,55.93
2023-07-26T11:56:47.566Z,54.43
2023-07-26T11:57:47.568Z,54.62
2023-07-26T11:58:47.562Z,55.22
2023-07-26T11:59:47.560Z,55.00
2023-07-26T12:00:48.548Z,55.20
2023-07-26T12:01:47.620Z,55.00
2023-07-26T12:02:47.620Z,55.40
2023-07-26T12:03:47.643Z,53.17
2023-07-26T12:04:47.579Z,53.37
2023-07-26T12:05:47.570Z,53.67
2023-07-26T12:06:47.552Z,54.37
2023-07-26T12:07:47.559Z,53.47
2023-07-26T12:08:47.608Z,51.74
2023-07-26T12:09:47.546Z,53.24
2023-07-26T12:10:47.544Z,52.94
2023-07-26T12:11:47.597Z,52.62
2023-07-26T12:12:47.588Z,52.52
2023-07-26T12:13:47.552Z,50.02
2023-07-26T12:14:47.538Z,51.22
2023-07-26T12:15:47.536Z,52.14
2023-07-26T12:16:47.560Z,51.46
2023-07-26T12:17:48.746Z,52.47
2023-07-26T12:18:47.579Z,52.57
2023-07-26T12:19:47.535Z,54.10
2023-07-26T12:21:00.313Z,55.82
2023-07-26T12:21:47.570Z,56.60
2023-07-26T12:22:47.528Z,55.87
2023-07-26T12:23:47.522Z,54.57
2023-07-26T12:24:47.536Z,54.85
2023-07-26T12:25:47.546Z,53.77
2023-07-26T12:26:47.517Z,53.24
2023-07-26T12:27:47.514Z,49.91
2023-07-26T12:28:47.516Z,48.49
2023-07-26T12:29:49.244Z,50.20
2023-07-26T12:30:47.510Z,49.97
2023-07-26T12:31:47.784Z,49.57
2023-07-26T12:32:47.560Z,50.45
2023-07-26T12:33:47.514Z,47.75
2023-07-26T12:34:47.506Z,47.95
2023-07-26T12:35:50.105Z,47.65
2023-07-26T12:36:47.525Z,47.15
2023-07-26T12:37:47.500Z,47.37
2023-07-26T12:38:47.506Z,47.67
2023-07-26T12:39:47.496Z,47.89
2023-07-26T12:40:47.498Z,47.49
2023-07-26T12:41:47.491Z,47.69
2023-07-26T12:42:47.492Z,46.87
2023-07-26T12:43:47.492Z,45.77
2023-07-26T12:44:47.490Z,47.27
2023-07-26T12:45:47.523Z,45.77
2023-07-26T12:47:47.522Z,45.25
2023-07-26T12:48:47.492Z,47.35
2023-07-26T12:49:47.485Z,45.95
2023-07-26T12:50:47.526Z,46.15
2023-07-26T12:51:47.480Z,45.17
2023-07-26T12:52:47.496Z,47.97
2023-07-26T12:53:47.481Z,47.27
2023-07-26T12:54:47.477Z,45.97
2023-07-26T12:55:47.528Z,45.50
2023-07-26T12:56:47.551Z,46.27